Time,TemperatureF,DewpointF,PressureIn,WindDirection,WindDirectionDegrees,WindSpeedMPH,WindSpeedGustMPH,Humidity,HourlyPrecipIn,Conditions,Clouds,dailyrainin,SoftwareType,DateUTC
2013-02-04 00:04:00,44.3,43.8,30.23,West,264,1.0,2.0,98,0.00,,,0.00,Wunderground v.1.15,2013-02-04 08:04:00,
2013-02-04 00:10:00,44.4,43.9,30.23,West,264,1.0,1.0,98,0.00,,,0.00,Wunderground v.1.15,2013-02-04 08:10:00,
2013-02-04 00:16:00,44.4,43.9,30.22,West,264,0.0,1.0,98,0.00,,,0.00,Wunderground v.1.15,2013-02-04 08:16:00,
2013-02-04 00:21:00,44.3,43.8,30.22,West,264,0.0,0.0,98,0.00,,,0.00,Wunderground v.1.15,2013-02-04 08:21:00,
2013-02-04 00:27:00,44.2,43.7,30.23,West,264,0.0,0.0,98,0.00,,,0.00,Wunderground v.1.15,2013-02-04 08:27:00,
2013-02-04 00:33:00,44.2,43.7,30.22,West,264,0.0,0.0,98,0.00,,,0.00,Wunderground v.1.15,2013-02-04 08:33:00,
2013-02-04 00:38:00,44.2,43.7,30.23,West,264,0.0,0.0,98,0.00,,,0.00,Wunderground v.1.15,2013-02-04 08:38:00,
2013-02-04 00:44:00,44.3,43.8,30.23,West,264,0.0,0.0,98,0.00,,,0.00,Wunderground v.1.15,2013-02-04 08:44:00,
2013-02-04 00:50:00,44.4,43.9,30.23,West,264,0.0,0.0,98,0.00,,,0.00,Wunderground v.1.15,2013-02-04 08:50:00,
2013-02-04 00:56:00,44.4,43.9,30.22,West,264,0.0,0.0,98,0.00,,,0.00,Wunderground v.1.15,2013-02-04 08:56:00,
2013-02-04 01:02:00,44.3,43.8,30.22,West,264,0.0,0.0,98,0.00,,,0.00,Wunderground v.1.15,2013-02-04 09:02:00,
2013-02-04 01:07:00,44.3,43.8,30.22,West,264,0.0,0.0,98,0.00,,,0.00,Wunderground v.1.15,2013-02-04 09:07:00,
2013-02-04 01:12:00,44.3,43.8,30.22,West,264,0.0,0.0,98,0.00,,,0.00,Wunderground v.1.15,2013-02-04 09:12:00,
2013-02-04 01:17:00,44.3,43.8,30.21,West,264,0.0,0.0,98,0.00,,,0.00,Wunderground v.1.15,2013-02-04 09:17:00,
2013-02-04 01:23:00,44.2,43.7,30.21,West,264,0.0,0.0,98,0.00,,,0.00,Wunderground v.1.15,2013-02-04 09:23:00,
2013-02-04 01:29:00,44.2,43.7,30.22,West,264,0.0,0.0,98,0.00,,,0.00,Wunderground v.1.15,2013-02-04 09:29:00,
2013-02-04 01:35:00,44.2,43.7,30.22,West,264,0.0,0.0,98,0.00,,,0.00,Wunderground v.1.15,2013-02-04 09:35:00,
2013-02-04 01:41:00,44.3,43.8,30.22,West,264,0.0,1.0,98,0.00,,,0.00,Wunderground v.1.15,2013-02-04 09:41:00,
2013-02-04 01:46:00,44.3,43.8,30.22,West,264,0.0,1.0,98,0.00,,,0.00,Wunderground v.1.15,2013-02-04 09:46:00,
2013-02-04 01:52:00,44.3,43.8,30.22,West,264,0.0,0.0,98,0.00,,,0.00,Wunderground v.1.15,2013-02-04 09:52:00,
2013-02-04 01:58:00,44.3,43.8,30.22,West,264,0.0,0.0,98,0.00,,,0.00,Wunderground v.1.15,2013-02-04 09:58:00,
2013-02-04 02:04:00,44.3,43.8,30.22,West,264,0.0,0.0,98,0.00,,,0.00,Wunderground v.1.15,2013-02-04 10:04:00,
2013-02-04 02:09:00,44.3,43.8,30.22,West,264,0.0,0.0,98,0.00,,,0.00,Wunderground v.1.15,2013-02-04 10:09:00,
2013-02-04 02:15:00,44.2,43.7,30.22,West,264,0.0,0.0,98,0.00,,,0.00,Wunderground v.1.15,2013-02-04 10:15:00,
2013-02-04 02:21:00,44.2,43.7,30.21,West,264,0.0,0.0,98,0.00,,,0.00,Wunderground v.1.15,2013-02-04 10:21:00,
2013-02-04 02:27:00,44.2,43.7,30.22,West,264,0.0,0.0,98,0.00,,,0.00,Wunderground v.1.15,2013-02-04 10:27:00,
2013-02-04 02:33:00,44.2,43.7,30.22,West,264,0.0,0.0,98,0.00,,,0.00,Wunderground v.1.15,2013-02-04 10:33:00,
2013-02-04 02:38:00,44.2,43.7,30.21,West,264,0.0,0.0,98,0.00,,,0.00,Wunderground v.1.15,2013-02-04 10:38:00,
2013-02-04 02:44:00,44.1,43.6,30.21,West,264,0.0,0.0,98,0.00,,,0.00,Wunderground v.1.15,2013-02-04 10:44:00,
2013-02-04 02:50:00,44.1,43.6,30.20,West,264,0.0,0.0,98,0.00,,,0.00,Wunderground v.1.15,2013-02-04 10:50:00,
2013-02-04 02:56:00,44.0,43.5,30.19,West,264,0.0,0.0,98,0.00,,,0.00,Wunderground v.1.15,2013-02-04 10:56:00,
2013-02-04 03:02:00,43.9,43.4,30.19,West,264,0.0,0.0,98,0.00,,,0.00,Wunderground v.1.15,2013-02-04 11:02:00,
2013-02-04 03:07:00,43.9,43.4,30.19,West,264,0.0,0.0,98,0.00,,,0.00,Wunderground v.1.15,2013-02-04 11:07:00,
2013-02-04 03:13:00,43.8,43.3,30.18,West,264,0.0,0.0,98,0.00,,,0.00,Wunderground v.1.15,2013-02-04 11:13:00,
2013-02-04 03:19:00,43.6,43.1,30.18,West,264,0.0,0.0,98,0.00,,,0.00,Wunderground v.1.15,2013-02-04 11:19:00,
2013-02-04 03:25:00,43.5,43.0,30.18,West,264,0.0,0.0,98,0.00,,,0.00,Wunderground v.1.15,2013-02-04 11:25:00,
2013-02-04 03:31:00,43.3,42.8,30.18,West,264,0.0,0.0,98,0.00,,,0.00,Wunderground v.1.15,2013-02-04 11:31:00,
2013-02-04 03:36:00,43.3,42.8,30.17,West,264,0.0,0.0,98,0.00,,,0.00,Wunderground v.1.15,2013-02-04 11:36:00,
2013-02-04 03:41:00,43.2,42.7,30.17,West,264,0.0,0.0,98,0.00,,,0.00,Wunderground v.1.15,2013-02-04 11:41:00,
2013-02-04 03:47:00,43.1,42.6,30.17,West,264,0.0,0.0,98,0.00,,,0.00,Wunderground v.1.15,2013-02-04 11:47:00,
2013-02-04 03:53:00,43.1,42.6,30.17,West,264,0.0,0.0,98,0.00,,,0.00,Wunderground v.1.15,2013-02-04 11:53:00,
2013-02-04 03:59:00,43.0,42.5,30.18,West,264,0.0,0.0,98,0.00,,,0.00,Wunderground v.1.15,2013-02-04 11:59:00,
2013-02-04 04:05:00,42.8,42.3,30.18,West,264,0.0,0.0,98,0.00,,,0.00,Wunderground v.1.15,2013-02-04 12:05:00,
2013-02-04 04:10:00,42.8,42.3,30.18,West,264,0.0,0.0,98,0.00,,,0.00,Wunderground v.1.15,2013-02-04 12:10:00,
2013-02-04 04:15:00,42.6,42.1,30.18,West,264,0.0,0.0,98,0.00,,,0.00,Wunderground v.1.15,2013-02-04 12:15:00,
2013-02-04 04:21:00,42.4,41.9,30.18,West,264,0.0,0.0,98,0.00,,,0.00,Wunderground v.1.15,2013-02-04 12:21:00,
2013-02-04 04:27:00,42.3,41.8,30.18,West,264,0.0,0.0,98,0.00,,,0.00,Wunderground v.1.15,2013-02-04 12:27:00,
2013-02-04 04:33:00,42.3,41.8,30.18,West,264,0.0,0.0,98,0.00,,,0.00,Wunderground v.1.15,2013-02-04 12:33:00,
2013-02-04 04:39:00,42.3,41.8,30.18,West,264,0.0,0.0,98,0.00,,,0.00,Wunderground v.1.15,2013-02-04 12:39:00,
2013-02-04 04:45:00,42.3,41.8,30.18,West,264,0.0,0.0,98,0.00,,,0.00,Wunderground v.1.15,2013-02-04 12:45:00,
2013-02-04 04:50:00,42.3,41.8,30.18,West,264,0.0,0.0,98,0.00,,,0.00,Wunderground v.1.15,2013-02-04 12:50:00,
2013-02-04 04:56:00,42.4,41.9,30.18,West,264,0.0,0.0,98,0.00,,,0.00,Wunderground v.1.15,2013-02-04 12:56:00,
2013-02-04 05:01:00,42.5,42.0,30.17,West,264,0.0,0.0,98,0.00,,,0.00,Wunderground v.1.15,2013-02-04 13:01:00,
2013-02-04 05:06:00,42.5,42.0,30.17,West,264,0.0,0.0,98,0.00,,,0.00,Wunderground v.1.15,2013-02-04 13:06:00,
2013-02-04 05:11:00,42.5,42.0,30.16,West,264,0.0,0.0,98,0.00,,,0.00,Wunderground v.1.15,2013-02-04 13:11:00,
2013-02-04 05:17:00,42.5,42.0,30.17,West,264,0.0,0.0,98,0.00,,,0.00,Wunderground v.1.15,2013-02-04 13:17:00,
2013-02-04 05:23:00,42.5,42.0,30.17,West,264,0.0,0.0,98,0.00,,,0.00,Wunderground v.1.15,2013-02-04 13:23:00,
2013-02-04 05:29:00,42.5,42.0,30.17,West,264,0.0,0.0,98,0.00,,,0.00,Wunderground v.1.15,2013-02-04 13:29:00,
2013-02-04 05:34:00,42.4,41.9,30.17,West,264,0.0,0.0,98,0.00,,,0.00,Wunderground v.1.15,2013-02-04 13:34:00,
2013-02-04 05:40:00,42.4,41.9,30.17,West,264,0.0,0.0,98,0.00,,,0.00,Wunderground v.1.15,2013-02-04 13:40:00,
2013-02-04 05:46:00,42.3,41.8,30.16,West,264,0.0,0.0,98,0.00,,,0.00,Wunderground v.1.15,2013-02-04 13:46:00,
2013-02-04 05:52:00,42.3,41.8,30.16,West,264,0.0,0.0,98,0.00,,,0.00,Wunderground v.1.15,2013-02-04 13:52:00,
2013-02-04 05:57:00,42.3,41.8,30.16,West,264,0.0,0.0,98,0.00,,,0.00,Wunderground v.1.15,2013-02-04 13:57:00,
2013-02-04 06:02:00,42.2,41.7,30.16,West,264,0.0,0.0,98,0.00,,,0.00,Wunderground v.1.15,2013-02-04 14:02:00,
2013-02-04 06:07:00,42.2,41.7,30.15,West,264,0.0,0.0,98,0.00,,,0.00,Wunderground v.1.15,2013-02-04 14:07:00,
2013-02-04 06:13:00,42.1,41.6,30.16,West,264,0.0,0.0,98,0.00,,,0.00,Wunderground v.1.15,2013-02-04 14:13:00,
2013-02-04 06:19:00,42.0,41.5,30.16,West,265,0.0,0.0,98,0.00,,,0.00,Wunderground v.1.15,2013-02-04 14:19:00,
2013-02-04 06:24:00,42.0,41.5,30.16,West,265,0.0,0.0,98,0.00,,,0.00,Wunderground v.1.15,2013-02-04 14:24:00,
2013-02-04 06:30:00,42.0,41.7,30.16,West,265,0.0,0.0,99,0.00,,,0.00,Wunderground v.1.15,2013-02-04 14:30:00,
2013-02-04 06:35:00,41.9,41.6,30.15,West,265,0.0,0.0,99,0.00,,,0.00,Wunderground v.1.15,2013-02-04 14:35:00,
2013-02-04 06:41:00,41.8,41.3,30.15,West,265,0.0,0.0,98,0.00,,,0.00,Wunderground v.1.15,2013-02-04 14:41:00,
2013-02-04 06:47:00,41.8,41.3,30.15,West,265,0.0,0.0,98,0.00,,,0.00,Wunderground v.1.15,2013-02-04 14:47:00,
2013-02-04 06:52:00,41.7,41.2,30.15,West,265,0.0,0.0,98,0.00,,,0.00,Wunderground v.1.15,2013-02-04 14:52:00,
2013-02-04 06:58:00,41.5,41.0,30.15,West,265,0.0,0.0,98,0.00,,,0.00,Wunderground v.1.15,2013-02-04 14:58:00,
2013-02-04 07:03:00,41.4,40.9,30.15,West,265,0.0,0.0,98,0.00,,,0.00,Wunderground v.1.15,2013-02-04 15:03:00,
2013-02-04 07:09:00,41.3,40.8,30.14,West,265,0.0,0.0,98,0.00,,,0.00,Wunderground v.1.15,2013-02-04 15:09:00,
2013-02-04 07:14:00,41.2,40.7,30.14,West,265,0.0,0.0,98,0.00,,,0.00,Wunderground v.1.15,2013-02-04 15:14:00,
2013-02-04 07:19:00,41.2,40.7,30.14,West,265,0.0,0.0,98,0.00,,,0.00,Wunderground v.1.15,2013-02-04 15:19:00,
2013-02-04 07:25:00,41.2,40.7,30.14,West,265,0.0,0.0,98,0.00,,,0.00,Wunderground v.1.15,2013-02-04 15:25:00,
2013-02-04 07:30:00,41.2,40.7,30.14,West,265,0.0,0.0,98,0.00,,,0.00,Wunderground v.1.15,2013-02-04 15:30:00,
2013-02-04 07:36:00,41.2,40.7,30.13,West,265,0.0,0.0,98,0.00,,,0.00,Wunderground v.1.15,2013-02-04 15:36:00,
2013-02-04 07:42:00,41.2,40.7,30.13,West,265,0.0,0.0,98,0.00,,,0.00,Wunderground v.1.15,2013-02-04 15:42:00,
2013-02-04 07:48:00,41.2,40.7,30.13,West,265,0.0,0.0,98,0.00,,,0.00,Wunderground v.1.15,2013-02-04 15:48:00,
2013-02-04 07:54:00,41.2,40.9,30.13,West,265,0.0,0.0,99,0.00,,,0.00,Wunderground v.1.15,2013-02-04 15:54:00,
2013-02-04 08:00:00,41.3,41.0,30.14,West,265,0.0,2.0,99,0.00,,,0.00,Wunderground v.1.15,2013-02-04 16:00:00,
2013-02-04 08:05:00,41.2,40.9,30.13,West,265,1.0,2.0,99,0.00,,,0.00,Wunderground v.1.15,2013-02-04 16:05:00,
2013-02-04 08:11:00,41.2,40.9,30.14,West,265,0.0,0.0,99,0.00,,,0.00,Wunderground v.1.15,2013-02-04 16:11:00,
2013-02-04 08:17:00,41.3,41.0,30.13,West,265,0.0,0.0,99,0.00,,,0.00,Wunderground v.1.15,2013-02-04 16:17:00,
2013-02-04 08:23:00,41.4,41.1,30.13,West,265,0.0,0.0,99,0.00,,,0.00,Wunderground v.1.15,2013-02-04 16:23:00,
2013-02-04 08:29:00,41.5,41.2,30.13,West,265,0.0,0.0,99,0.00,,,0.00,Wunderground v.1.15,2013-02-04 16:29:00,
2013-02-04 08:35:00,41.6,41.3,30.13,West,264,0.0,0.0,99,0.00,,,0.00,Wunderground v.1.15,2013-02-04 16:35:00,
2013-02-04 08:41:00,41.6,41.3,30.13,West,264,0.0,0.0,99,0.00,,,0.00,Wunderground v.1.15,2013-02-04 16:41:00,
2013-02-04 08:47:00,41.7,41.4,30.13,West,264,0.0,0.0,99,0.00,,,0.00,Wunderground v.1.15,2013-02-04 16:47:00,
2013-02-04 08:52:00,41.8,41.5,30.13,West,264,0.0,0.0,99,0.00,,,0.00,Wunderground v.1.15,2013-02-04 16:52:00,
2013-02-04 08:57:00,41.9,41.6,30.13,West,264,0.0,0.0,99,0.00,,,0.00,Wunderground v.1.15,2013-02-04 16:57:00,
2013-02-04 09:03:00,41.9,41.6,30.13,West,264,0.0,0.0,99,0.00,,,0.00,Wunderground v.1.15,2013-02-04 17:03:00,
2013-02-04 09:08:00,41.9,41.6,30.13,West,264,0.0,0.0,99,0.00,,,0.00,Wunderground v.1.15,2013-02-04 17:08:00,
2013-02-04 09:14:00,42.1,41.8,30.13,West,264,0.0,0.0,99,0.00,,,0.00,Wunderground v.1.15,2013-02-04 17:14:00,
2013-02-04 09:19:00,42.2,41.9,30.14,West,264,0.0,0.0,99,0.00,,,0.00,Wunderground v.1.15,2013-02-04 17:19:00,
2013-02-04 09:25:00,42.4,42.1,30.13,West,264,0.0,0.0,99,0.00,,,0.00,Wunderground v.1.15,2013-02-04 17:25:00,
2013-02-04 09:31:00,42.5,42.2,30.13,West,264,0.0,0.0,99,0.00,,,0.00,Wunderground v.1.15,2013-02-04 17:31:00,
2013-02-04 09:36:00,42.9,42.6,30.13,West,264,0.0,0.0,99,0.00,,,0.00,Wunderground v.1.15,2013-02-04 17:36:00,
2013-02-04 09:41:00,43.2,42.9,30.13,West,264,0.0,0.0,99,0.00,,,0.00,Wunderground v.1.15,2013-02-04 17:41:00,
2013-02-04 09:47:00,43.7,43.4,30.13,West,264,0.0,0.0,99,0.00,,,0.00,Wunderground v.1.15,2013-02-04 17:47:00,
2013-02-04 09:52:00,44.0,43.7,30.13,West,264,0.0,0.0,99,0.00,,,0.00,Wunderground v.1.15,2013-02-04 17:52:00,
2013-02-04 09:58:00,44.2,43.9,30.13,West,264,0.0,0.0,99,0.00,,,0.00,Wunderground v.1.15,2013-02-04 17:58:00,
2013-02-04 10:04:00,44.6,44.3,30.13,West,264,0.0,0.0,99,0.00,,,0.00,Wunderground v.1.15,2013-02-04 18:04:00,
2013-02-04 10:09:00,45.0,44.7,30.13,West,264,0.0,0.0,99,0.00,,,0.00,Wunderground v.1.15,2013-02-04 18:09:00,
2013-02-04 10:15:00,45.5,45.2,30.12,West,264,0.0,0.0,99,0.00,,,0.00,Wunderground v.1.15,2013-02-04 18:15:00,
2013-02-04 10:21:00,46.1,45.8,30.12,West,264,0.0,0.0,99,0.00,,,0.00,Wunderground v.1.15,2013-02-04 18:21:00,
2013-02-04 10:27:00,46.6,46.3,30.12,West,264,0.0,1.0,99,0.00,,,0.00,Wunderground v.1.15,2013-02-04 18:27:00,
2013-02-04 10:33:00,46.8,46.3,30.12,West,264,0.0,0.0,98,0.00,,,0.00,Wunderground v.1.15,2013-02-04 18:33:00,
2013-02-04 10:38:00,47.1,46.3,30.11,West,264,0.0,0.0,97,0.00,,,0.00,Wunderground v.1.15,2013-02-04 18:38:00,
2013-02-04 10:44:00,47.4,46.3,30.11,West,264,0.0,0.0,96,0.00,,,0.00,Wunderground v.1.15,2013-02-04 18:44:00,
2013-02-04 10:50:00,47.9,46.3,30.11,West,264,0.0,0.0,94,0.00,,,0.00,Wunderground v.1.15,2013-02-04 18:50:00,
2013-02-04 10:55:00,48.5,46.0,30.11,SSE,167,0.0,2.0,91,0.00,,,0.00,Wunderground v.1.15,2013-02-04 18:55:00,
2013-02-04 11:01:00,49.2,46.1,30.11,SSE,167,0.0,0.0,89,0.00,,,0.00,Wunderground v.1.15,2013-02-04 19:01:00,
2013-02-04 11:07:00,49.6,45.6,30.10,WSW,241,0.0,0.0,86,0.00,,,0.00,Wunderground v.1.15,2013-02-04 19:07:00,
2013-02-04 11:12:00,50.2,46.8,30.10,WSW,241,0.0,0.0,88,0.00,,,0.00,Wunderground v.1.15,2013-02-04 19:12:00,
2013-02-04 11:17:00,50.4,45.4,30.11,SW,232,1.0,3.0,83,0.00,,,0.00,Wunderground v.1.15,2013-02-04 19:17:00,
2013-02-04 11:22:00,50.2,45.6,30.11,SW,232,1.0,2.0,84,0.00,,,0.00,Wunderground v.1.15,2013-02-04 19:22:00,
2013-02-04 11:28:00,50.3,45.3,30.10,South,190,0.0,2.0,83,0.00,,,0.00,Wunderground v.1.15,2013-02-04 19:28:00,
2013-02-04 11:34:00,50.5,45.2,30.10,WSW,241,0.0,2.0,82,0.00,,,0.00,Wunderground v.1.15,2013-02-04 19:34:00,
2013-02-04 11:40:00,50.7,45.7,30.10,WSW,242,0.0,0.0,83,0.00,,,0.00,Wunderground v.1.15,2013-02-04 19:40:00,
2013-02-04 11:46:00,51.2,46.2,30.10,West,264,0.0,2.0,83,0.00,,,0.00,Wunderground v.1.15,2013-02-04 19:46:00,
2013-02-04 11:52:00,51.2,46.2,30.10,WNW,285,2.0,3.0,83,0.00,,,0.00,Wunderground v.1.15,2013-02-04 19:52:00,
2013-02-04 11:58:00,51.4,46.4,30.09,WNW,284,2.0,3.0,83,0.00,,,0.00,Wunderground v.1.15,2013-02-04 19:58:00,
2013-02-04 12:04:00,52.1,47.1,30.09,West,271,1.0,2.0,83,0.00,,,0.00,Wunderground v.1.15,2013-02-04 20:04:00,
2013-02-04 12:10:00,52.1,46.4,30.09,NNW,346,1.0,2.0,81,0.00,,,0.00,Wunderground v.1.15,2013-02-04 20:10:00,
2013-02-04 12:16:00,52.0,46.0,30.08,NW,316,1.0,2.0,80,0.00,,,0.00,Wunderground v.1.15,2013-02-04 20:16:00,
2013-02-04 12:22:00,52.3,47.0,30.08,NW,321,0.0,1.0,82,0.00,,,0.00,Wunderground v.1.15,2013-02-04 20:22:00,
2013-02-04 12:28:00,52.7,46.7,30.08,WNW,293,1.0,3.0,80,0.00,,,0.00,Wunderground v.1.15,2013-02-04 20:28:00,
2013-02-04 12:34:00,52.5,45.8,30.07,WNW,289,1.0,1.0,78,0.00,,,0.00,Wunderground v.1.15,2013-02-04 20:34:00,
2013-02-04 12:39:00,52.6,46.6,30.07,WNW,289,0.0,1.0,80,0.00,,,0.00,Wunderground v.1.15,2013-02-04 20:39:00,
2013-02-04 12:45:00,52.8,46.1,30.07,WNW,302,1.0,3.0,78,0.00,,,0.00,Wunderground v.1.15,2013-02-04 20:45:00,
2013-02-04 12:50:00,52.7,45.7,30.06,West,277,2.0,2.0,77,0.00,,,0.00,Wunderground v.1.15,2013-02-04 20:50:00,
2013-02-04 12:56:00,52.8,46.5,30.06,West,277,2.0,2.0,79,0.00,,,0.00,Wunderground v.1.15,2013-02-04 20:56:00,
2013-02-04 13:02:00,52.9,46.2,30.06,West,277,1.0,1.0,78,0.00,,,0.00,Wunderground v.1.15,2013-02-04 21:02:00,
2013-02-04 13:07:00,53.1,45.7,30.06,SW,229,1.0,4.0,76,0.00,,,0.00,Wunderground v.1.15,2013-02-04 21:07:00,
2013-02-04 13:12:00,53.0,45.6,30.06,West,271,1.0,4.0,76,0.00,,,0.00,Wunderground v.1.15,2013-02-04 21:12:00,
2013-02-04 13:18:00,52.8,45.4,30.06,West,267,2.0,4.0,76,0.00,,,0.00,Wunderground v.1.15,2013-02-04 21:18:00,
2013-02-04 13:24:00,52.6,45.2,30.05,West,269,3.0,4.0,76,0.00,,,0.00,Wunderground v.1.15,2013-02-04 21:24:00,
2013-02-04 13:30:00,52.5,45.2,30.05,West,266,3.0,3.0,76,0.00,,,0.00,Wunderground v.1.15,2013-02-04 21:30:00,
2013-02-04 13:35:00,52.3,44.6,30.05,West,274,3.0,5.0,75,0.00,,,0.00,Wunderground v.1.15,2013-02-04 21:35:00,
2013-02-04 13:41:00,52.2,45.5,30.05,West,269,3.0,3.0,78,0.00,,,0.00,Wunderground v.1.15,2013-02-04 21:41:00,
2013-02-04 13:46:00,52.2,45.2,30.05,WNW,302,3.0,5.0,77,0.00,,,0.00,Wunderground v.1.15,2013-02-04 21:46:00,
2013-02-04 13:52:00,52.0,46.3,30.05,West,273,3.0,3.0,81,0.00,,,0.00,Wunderground v.1.15,2013-02-04 21:52:00,
2013-02-04 13:58:00,51.8,45.8,30.04,West,266,3.0,5.0,80,0.00,,,0.00,Wunderground v.1.15,2013-02-04 21:58:00,
2013-02-04 14:04:00,51.6,46.0,30.04,West,278,3.0,4.0,81,0.00,,,0.00,Wunderground v.1.15,2013-02-04 22:04:00,
2013-02-04 14:10:00,51.4,45.4,30.04,West,280,3.0,3.0,80,0.00,,,0.00,Wunderground v.1.15,2013-02-04 22:10:00,
2013-02-04 14:15:00,51.3,45.7,30.04,West,273,3.0,4.0,81,0.00,,,0.00,Wunderground v.1.15,2013-02-04 22:15:00,
2013-02-04 14:21:00,51.2,45.6,30.04,West,277,3.0,3.0,81,0.00,,,0.00,Wunderground v.1.15,2013-02-04 22:21:00,
2013-02-04 14:27:00,51.1,45.5,30.03,West,265,3.0,4.0,81,0.00,,,0.00,Wunderground v.1.15,2013-02-04 22:27:00,
2013-02-04 14:33:00,50.9,45.6,30.03,WNW,300,2.0,2.0,82,0.00,,,0.00,Wunderground v.1.15,2013-02-04 22:33:00,
2013-02-04 14:38:00,50.8,45.5,30.03,West,279,2.0,5.0,82,0.00,,,0.00,Wunderground v.1.15,2013-02-04 22:38:00,
2013-02-04 14:44:00,50.4,45.4,30.03,West,276,3.0,5.0,83,0.00,,,0.00,Wunderground v.1.15,2013-02-04 22:44:00,
2013-02-04 14:49:00,50.4,45.7,30.03,West,271,3.0,5.0,84,0.00,,,0.00,Wunderground v.1.15,2013-02-04 22:49:00,
2013-02-04 14:55:00,50.3,45.3,30.03,WNW,297,3.0,3.0,83,0.00,,,0.00,Wunderground v.1.15,2013-02-04 22:55:00,
2013-02-04 15:01:00,50.3,45.6,30.03,West,277,2.0,4.0,84,0.00,,,0.00,Wunderground v.1.15,2013-02-04 23:01:00,
2013-02-04 15:06:00,50.2,45.6,30.03,WNW,288,2.0,4.0,84,0.00,,,0.00,Wunderground v.1.15,2013-02-04 23:06:00,
2013-02-04 15:12:00,50.1,45.5,30.03,West,275,2.0,3.0,84,0.00,,,0.00,Wunderground v.1.15,2013-02-04 23:12:00,
2013-02-04 15:18:00,50.1,45.8,30.04,West,273,2.0,4.0,85,0.00,,,0.00,Wunderground v.1.15,2013-02-04 23:18:00,
2013-02-04 15:24:00,49.9,45.6,30.04,West,270,2.0,4.0,85,0.00,,,0.00,Wunderground v.1.15,2013-02-04 23:24:00,
2013-02-04 15:29:00,49.8,45.5,30.04,West,273,2.0,4.0,85,0.00,,,0.00,Wunderground v.1.15,2013-02-04 23:29:00,
2013-02-04 15:34:00,49.5,45.5,30.04,West,276,3.0,5.0,86,0.00,,,0.00,Wunderground v.1.15,2013-02-04 23:34:00,
2013-02-04 15:39:00,49.2,45.2,30.04,West,270,2.0,5.0,86,0.00,,,0.00,Wunderground v.1.15,2013-02-04 23:39:00,
2013-02-04 15:44:00,49.0,45.0,30.05,West,267,3.0,5.0,86,0.00,,,0.00,Wunderground v.1.15,2013-02-04 23:44:00,
2013-02-04 15:50:00,48.7,45.0,30.05,West,274,3.0,3.0,87,0.00,,,0.00,Wunderground v.1.15,2013-02-04 23:50:00,
2013-02-04 15:55:00,48.5,44.5,30.05,SW,229,2.0,3.0,86,0.00,,,0.00,Wunderground v.1.15,2013-02-04 23:55:00,
2013-02-04 16:01:00,48.3,44.3,30.05,WSW,248,2.0,2.0,86,0.00,,,0.00,Wunderground v.1.15,2013-02-05 00:01:00,
2013-02-04 16:06:00,48.2,44.2,30.05,WSW,248,1.0,2.0,86,0.00,,,0.00,Wunderground v.1.15,2013-02-05 00:06:00,
2013-02-04 16:12:00,48.1,44.4,30.05,WSW,255,0.0,2.0,87,0.00,,,0.00,Wunderground v.1.15,2013-02-05 00:12:00,
2013-02-04 16:18:00,48.0,44.3,30.05,SW,219,0.0,2.0,87,0.00,,,0.00,Wunderground v.1.15,2013-02-05 00:18:00,
2013-02-04 16:24:00,48.0,44.3,30.05,SW,219,0.0,0.0,87,0.00,,,0.00,Wunderground v.1.15,2013-02-05 00:24:00,
2013-02-04 16:30:00,47.9,43.9,30.05,SW,219,0.0,0.0,86,0.00,,,0.00,Wunderground v.1.15,2013-02-05 00:30:00,
2013-02-04 16:36:00,47.9,44.2,30.04,SW,219,0.0,0.0,87,0.00,,,0.00,Wunderground v.1.15,2013-02-05 00:36:00,
2013-02-04 16:42:00,47.9,44.2,30.04,SW,219,0.0,0.0,87,0.00,,,0.00,Wunderground v.1.15,2013-02-05 00:42:00,
2013-02-04 16:47:00,47.8,44.4,30.03,SW,219,0.0,0.0,88,0.00,,,0.00,Wunderground v.1.15,2013-02-05 00:47:00,
2013-02-04 16:52:00,47.8,44.1,30.03,SW,219,0.0,0.0,87,0.00,,,0.00,Wunderground v.1.15,2013-02-05 00:52:00,
2013-02-04 16:57:00,47.7,44.3,30.03,SW,219,0.0,0.0,88,0.00,,,0.00,Wunderground v.1.15,2013-02-05 00:57:00,
2013-02-04 17:03:00,47.6,44.2,30.03,SW,219,0.0,0.0,88,0.00,,,0.00,Wunderground v.1.15,2013-02-05 01:03:00,
2013-02-04 17:09:00,47.5,43.8,30.02,SW,219,0.0,0.0,87,0.00,,,0.00,Wunderground v.1.15,2013-02-05 01:09:00,
2013-02-04 17:14:00,47.5,44.1,30.02,SW,219,0.0,0.0,88,0.00,,,0.00,Wunderground v.1.15,2013-02-05 01:14:00,
2013-02-04 17:20:00,47.4,44.0,30.02,ESE,102,0.0,0.0,88,0.00,,,0.00,Wunderground v.1.15,2013-02-05 01:20:00,
2013-02-04 17:26:00,47.3,43.9,30.01,ESE,102,0.0,0.0,88,0.00,,,0.00,Wunderground v.1.15,2013-02-05 01:26:00,
2013-02-04 17:31:00,47.3,43.9,30.01,ESE,102,0.0,0.0,88,0.00,,,0.00,Wunderground v.1.15,2013-02-05 01:31:00,
2013-02-04 17:36:00,47.3,44.2,30.01,ESE,102,0.0,0.0,89,0.00,,,0.00,Wunderground v.1.15,2013-02-05 01:36:00,
2013-02-04 17:42:00,47.2,44.4,30.00,ESE,102,0.0,0.0,90,0.00,,,0.00,Wunderground v.1.15,2013-02-05 01:42:00,
2013-02-04 17:48:00,47.0,43.9,29.99,ESE,102,0.0,0.0,89,0.00,,,0.00,Wunderground v.1.15,2013-02-05 01:48:00,
2013-02-04 17:54:00,46.9,43.8,29.99,ESE,102,0.0,0.0,89,0.00,,,0.00,Wunderground v.1.15,2013-02-05 01:54:00,
2013-02-04 18:00:00,46.8,43.7,29.99,ESE,102,0.0,0.0,89,0.00,,,0.00,Wunderground v.1.15,2013-02-05 02:00:00,
2013-02-04 18:05:00,46.8,43.7,29.98,ESE,102,0.0,0.0,89,0.00,,,0.00,Wunderground v.1.15,2013-02-05 02:05:00,
2013-02-04 18:10:00,46.8,43.7,29.98,SSW,192,0.0,0.0,89,0.00,,,0.00,Wunderground v.1.15,2013-02-05 02:10:00,
2013-02-04 18:16:00,46.8,43.7,29.98,SSW,192,0.0,0.0,89,0.00,,,0.00,Wunderground v.1.15,2013-02-05 02:16:00,
2013-02-04 18:21:00,46.8,43.4,29.98,SW,224,0.0,0.0,88,0.00,,,0.00,Wunderground v.1.15,2013-02-05 02:21:00,
2013-02-04 18:26:00,46.8,43.7,29.98,SW,226,0.0,0.0,89,0.00,,,0.00,Wunderground v.1.15,2013-02-05 02:26:00,
2013-02-04 18:32:00,46.8,43.7,29.97,SW,226,0.0,0.0,89,0.00,,,0.00,Wunderground v.1.15,2013-02-05 02:32:00,
2013-02-04 18:37:00,46.8,43.7,29.98,SW,226,0.0,0.0,89,0.00,,,0.00,Wunderground v.1.15,2013-02-05 02:37:00,
2013-02-04 18:43:00,46.8,43.7,29.98,SW,226,0.0,0.0,89,0.00,,,0.00,Wunderground v.1.15,2013-02-05 02:43:00,
2013-02-04 18:49:00,46.9,43.8,29.98,SW,226,0.0,0.0,89,0.00,,,0.00,Wunderground v.1.15,2013-02-05 02:49:00,
2013-02-04 18:55:00,46.8,43.7,29.97,South,183,0.0,0.0,89,0.00,,,0.00,Wunderground v.1.15,2013-02-05 02:55:00,
2013-02-04 19:01:00,46.8,43.4,29.98,South,185,0.0,0.0,88,0.00,,,0.00,Wunderground v.1.15,2013-02-05 03:01:00,
2013-02-04 19:06:00,46.8,43.7,29.98,South,186,0.0,1.0,89,0.00,,,0.00,Wunderground v.1.15,2013-02-05 03:06:00,
2013-02-04 19:11:00,46.8,44.0,29.98,South,186,0.0,0.0,90,0.00,,,0.00,Wunderground v.1.15,2013-02-05 03:11:00,
2013-02-04 19:17:00,46.6,43.8,29.98,South,186,0.0,0.0,90,0.00,,,0.00,Wunderground v.1.15,2013-02-05 03:17:00,
2013-02-04 19:23:00,46.6,43.8,29.98,South,186,0.0,0.0,90,0.00,,,0.00,Wunderground v.1.15,2013-02-05 03:23:00,
2013-02-04 19:28:00,46.5,43.7,29.98,South,186,0.0,0.0,90,0.00,,,0.00,Wunderground v.1.15,2013-02-05 03:28:00,
2013-02-04 19:33:00,46.5,44.0,29.98,South,186,0.0,0.0,91,0.00,,,0.00,Wunderground v.1.15,2013-02-05 03:33:00,
2013-02-04 19:38:00,46.4,44.2,29.98,South,186,0.0,0.0,92,0.00,,,0.00,Wunderground v.1.15,2013-02-05 03:38:00,
2013-02-04 19:44:00,46.3,44.1,29.97,South,186,0.0,0.0,92,0.00,,,0.00,Wunderground v.1.15,2013-02-05 03:44:00,
2013-02-04 19:49:00,46.1,43.9,29.97,South,186,0.0,0.0,92,0.00,,,0.00,Wunderground v.1.15,2013-02-05 03:49:00,
2013-02-04 19:55:00,46.0,44.1,29.97,South,186,0.0,0.0,93,0.00,,,0.00,Wunderground v.1.15,2013-02-05 03:55:00,
2013-02-04 20:00:00,45.9,43.7,29.98,South,186,0.0,0.0,92,0.00,,,0.00,Wunderground v.1.15,2013-02-05 04:00:00,
2013-02-04 20:06:00,45.7,43.8,29.98,South,186,0.0,0.0,93,0.00,,,0.00,Wunderground v.1.15,2013-02-05 04:06:00,
2013-02-04 20:12:00,45.6,43.7,29.98,South,186,0.0,0.0,93,0.00,,,0.00,Wunderground v.1.15,2013-02-05 04:12:00,
2013-02-04 20:17:00,45.5,43.6,29.98,South,186,0.0,0.0,93,0.00,,,0.00,Wunderground v.1.15,2013-02-05 04:17:00,
2013-02-04 20:22:00,45.5,43.9,29.98,South,186,0.0,0.0,94,0.00,,,0.00,Wunderground v.1.15,2013-02-05 04:22:00,
2013-02-04 20:28:00,45.5,43.9,29.98,South,186,0.0,0.0,94,0.00,,,0.00,Wunderground v.1.15,2013-02-05 04:28:00,
2013-02-04 20:33:00,45.4,43.8,29.98,South,186,0.0,0.0,94,0.00,,,0.00,Wunderground v.1.15,2013-02-05 04:33:00,
2013-02-04 20:39:00,45.5,43.9,29.98,South,186,0.0,0.0,94,0.00,,,0.00,Wunderground v.1.15,2013-02-05 04:39:00,
2013-02-04 20:44:00,45.5,43.9,29.98,South,186,0.0,0.0,94,0.00,,,0.00,Wunderground v.1.15,2013-02-05 04:44:00,
2013-02-04 20:49:00,45.6,44.0,29.98,South,184,0.0,1.0,94,0.00,,,0.00,Wunderground v.1.15,2013-02-05 04:49:00,
2013-02-04 20:54:00,45.6,44.0,29.98,South,184,0.0,0.0,94,0.00,,,0.00,Wunderground v.1.15,2013-02-05 04:54:00,
2013-02-04 21:00:00,45.7,44.1,29.97,South,184,0.0,0.0,94,0.00,,,0.00,Wunderground v.1.15,2013-02-05 05:00:00,
2013-02-04 21:01:00,45.7,44.1,29.98,South,184,0.0,0.0,94,0.00,,,0.00,Wunderground v.1.15,2013-02-05 05:01:00,
2013-02-04 21:02:00,45.7,43.8,29.98,South,184,0.0,2.0,93,0.00,,,0.00,Wunderground v.1.15,2013-02-05 05:02:00,
2013-02-04 21:07:00,45.8,43.9,29.98,South,184,0.0,2.0,93,0.00,,,0.00,Wunderground v.1.15,2013-02-05 05:07:00,
2013-02-04 21:09:00,45.9,44.0,29.98,South,184,0.0,2.0,93,0.00,,,0.00,Wunderground v.1.15,2013-02-05 05:09:00,
2013-02-04 21:14:00,45.9,44.0,29.98,South,184,0.0,0.0,93,0.00,,,0.00,Wunderground v.1.15,2013-02-05 05:14:00,
2013-02-04 21:19:00,46.0,44.1,29.98,SW,231,0.0,1.0,93,0.00,,,0.00,Wunderground v.1.15,2013-02-05 05:19:00,
2013-02-04 21:24:00,46.4,44.2,29.98,NW,304,1.0,1.0,92,0.00,,,0.00,Wunderground v.1.15,2013-02-05 05:24:00,
2013-02-04 21:30:00,46.6,44.1,29.98,East,80,0.0,0.0,91,0.00,,,0.00,Wunderground v.1.15,2013-02-05 05:30:00,
2013-02-04 21:35:00,46.7,44.2,29.98,South,184,1.0,2.0,91,0.00,,,0.00,Wunderground v.1.15,2013-02-05 05:35:00,
2013-02-04 21:41:00,46.8,44.0,29.98,South,184,1.0,1.0,90,0.00,,,0.00,Wunderground v.1.15,2013-02-05 05:41:00,
2013-02-04 21:46:00,46.9,44.1,29.98,South,184,0.0,1.0,90,0.00,,,0.00,Wunderground v.1.15,2013-02-05 05:46:00,
2013-02-04 21:51:00,46.9,44.1,29.98,NNE,29,0.0,0.0,90,0.00,,,0.00,Wunderground v.1.15,2013-02-05 05:51:00,
2013-02-04 21:56:00,46.8,44.3,29.98,NNE,29,0.0,0.0,91,0.00,,,0.00,Wunderground v.1.15,2013-02-05 05:56:00,
2013-02-04 22:01:00,46.8,44.3,29.98,NNE,29,0.0,0.0,91,0.00,,,0.00,Wunderground v.1.15,2013-02-05 06:01:00,
2013-02-04 22:06:00,46.7,44.2,29.98,NE,55,0.0,2.0,91,0.00,,,0.00,Wunderground v.1.15,2013-02-05 06:06:00,
2013-02-04 22:12:00,46.6,44.4,29.98,NE,51,1.0,1.0,92,0.00,,,0.00,Wunderground v.1.15,2013-02-05 06:12:00,
2013-02-04 22:18:00,46.7,44.5,29.98,NE,54,0.0,1.0,92,0.00,,,0.00,Wunderground v.1.15,2013-02-05 06:18:00,
2013-02-04 22:24:00,46.7,44.5,29.98,SSW,206,0.0,2.0,92,0.00,,,0.00,Wunderground v.1.15,2013-02-05 06:24:00,
2013-02-04 22:29:00,46.7,44.2,29.98,West,281,1.0,3.0,91,0.00,,,0.00,Wunderground v.1.15,2013-02-05 06:29:00,
2013-02-04 22:34:00,46.8,44.3,29.98,ESE,123,1.0,3.0,91,0.00,,,0.00,Wunderground v.1.15,2013-02-05 06:34:00,
2013-02-04 22:40:00,46.8,44.3,29.98,SE,136,1.0,1.0,91,0.00,,,0.00,Wunderground v.1.15,2013-02-05 06:40:00,
2013-02-04 22:46:00,46.9,44.4,29.98,SE,133,1.0,1.0,91,0.00,,,0.00,Wunderground v.1.15,2013-02-05 06:46:00,
2013-02-04 22:52:00,46.8,44.6,29.98,East,86,1.0,1.0,92,0.00,,,0.00,Wunderground v.1.15,2013-02-05 06:52:00,
2013-02-04 22:58:00,46.7,44.5,29.98,East,97,1.0,2.0,92,0.00,,,0.00,Wunderground v.1.15,2013-02-05 06:58:00,
2013-02-04 23:04:00,46.7,43.9,29.98,SSE,165,2.0,3.0,90,0.00,,,0.00,Wunderground v.1.15,2013-02-05 07:04:00,
2013-02-04 23:10:00,46.9,43.8,29.98,SW,233,2.0,2.0,89,0.00,,,0.00,Wunderground v.1.15,2013-02-05 07:10:00,
2013-02-04 23:16:00,47.0,43.9,29.98,East,89,1.0,2.0,89,0.00,,,0.00,Wunderground v.1.15,2013-02-05 07:16:00,
2013-02-04 23:22:00,47.1,43.4,29.98,SW,228,1.0,8.0,87,0.00,,,0.00,Wunderground v.1.15,2013-02-05 07:22:00,
2013-02-04 23:28:00,47.4,43.1,29.98,NNW,342,3.0,9.0,85,0.00,,,0.00,Wunderground v.1.15,2013-02-05 07:28:00,
2013-02-04 23:34:00,47.5,43.2,29.98,SE,134,2.0,3.0,85,0.00,,,0.00,Wunderground v.1.15,2013-02-05 07:34:00,
2013-02-04 23:40:00,47.4,43.1,29.98,SSE,162,1.0,1.0,85,0.00,,,0.00,Wunderground v.1.15,2013-02-05 07:40:00,
2013-02-04 23:46:00,47.4,43.4,29.98,WSW,240,1.0,3.0,86,0.00,,,0.00,Wunderground v.1.15,2013-02-05 07:46:00,
2013-02-04 23:51:00,47.3,43.3,29.98,SSE,164,1.0,1.0,86,0.00,,,0.00,Wunderground v.1.15,2013-02-05 07:51:00,
2013-02-04 23:57:00,47.2,42.9,29.98,West,266,0.0,2.0,85,0.00,,,0.00,Wunderground v.1.15,2013-02-05 07:57:00,